Time;durP1;ratioP1;P1;durP2;ratioP2;P2;SDS_P1;SDS_P2;PMS_P1;PMS_P2;Temp;Humidity;BMP_temperature;BMP_pressure;BME280_temperature;BME280_humidity;BME280_pressure;Samples;Min_cycle;Max_cycle;Signal;HPM_P1;HPM_P2
2022/12/25 00:01:53;;;;;;;41.72;15.80;;;9.20;99.90;;;;;;5055035;28;20450;-68
2022/12/25 00:04:19;;;;;;;42.00;13.07;;;9.20;99.90;;;;;;5054412;28;20489;-68
2022/12/25 00:06:44;;;;;;;38.78;12.75;;;9.20;99.90;;;;;;5054315;28;20531;-68
2022/12/25 00:09:10;;;;;;;42.08;15.50;;;9.20;99.90;;;;;;5055065;28;20029;-68
2022/12/25 00:11:35;;;;;;;40.45;14.68;;;9.20;99.90;;;;;;5054793;28;20025;-68
2022/12/25 00:14:01;;;;;;;51.10;17.17;;;9.30;99.90;;;;;;5054533;28;20025;-68
2022/12/25 00:16:27;;;;;;;43.55;13.63;;;9.30;99.90;;;;;;5054963;28;20033;-68
2022/12/25 00:18:53;;;;;;;46.72;15.23;;;9.30;99.90;;;;;;5054611;28;20032;-67
2022/12/25 00:21:20;;;;;;;50.63;17.40;;;9.30;99.90;;;;;;5054636;28;20025;-68
2022/12/25 00:23:45;;;;;;;37.90;13.57;;;9.30;99.90;;;;;;5054856;28;20175;-68
2022/12/25 00:26:15;;;;;;;37.58;12.32;;;9.30;99.90;;;;;;5054147;28;20807;-68
2022/12/25 00:28:42;;;;;;;38.75;14.05;;;9.30;99.90;;;;;;5054511;28;20037;-68
2022/12/25 00:31:10;;;;;;;38.15;13.52;;;9.30;99.90;;;;;;5053328;28;20025;-69
2022/12/25 00:33:37;;;;;;;51.45;14.85;;;9.30;99.90;;;;;;5054555;28;20025;-68
2022/12/25 00:36:05;;;;;;;35.03;13.40;;;9.30;99.90;;;;;;5054043;28;20021;-67
2022/12/25 00:38:31;;;;;;;46.03;16.98;;;9.30;99.90;;;;;;5054366;28;20036;-69
2022/12/25 00:40:57;;;;;;;40.95;16.33;;;9.30;99.90;;;;;;5053920;28;20061;-68
2022/12/25 00:43:22;;;;;;;42.50;14.77;;;9.40;99.90;;;;;;5054327;28;20114;-69
2022/12/25 00:46:00;;;;;;;46.83;14.77;;;9.40;99.90;;;;;;5054264;28;20021;-68
2022/12/25 00:48:27;;;;;;;51.50;17.02;;;9.30;99.90;;;;;;5054216;28;20049;-67
2022/12/25 00:50:57;;;;;;;40.50;15.23;;;9.40;99.90;;;;;;5054197;28;20079;-69
2022/12/25 00:53:24;;;;;;;43.53;14.07;;;9.40;99.90;;;;;;5053668;28;20423;-68
2022/12/25 00:56:02;;;;;;;39.20;14.43;;;9.40;99.90;;;;;;5053773;28;20044;-67
2022/12/25 00:58:29;;;;;;;42.80;14.93;;;9.40;99.90;;;;;;5054001;28;20075;-69
2022/12/25 01:00:56;;;;;;;43.03;14.88;;;9.40;99.90;;;;;;5053999;28;20032;-69
2022/12/25 01:03:23;;;;;;;46.60;16.73;;;9.40;99.90;;;;;;5053840;28;20025;-68
2022/12/25 01:05:57;;;;;;;45.95;13.48;;;9.40;99.90;;;;;;5053705;28;20033;-69
2022/12/25 01:08:24;;;;;;;50.40;14.32;;;9.40;99.90;;;;;;5053548;28;20032;-69
2022/12/25 01:11:01;;;;;;;40.42;15.50;;;9.40;99.90;;;;;;5053944;28;20151;-69
2022/12/25 01:13:28;;;;;;;45.60;15.25;;;9.40;99.90;;;;;;5053571;28;20036;-69
2022/12/25 01:15:53;;;;;;;41.45;16.00;;;9.40;99.90;;;;;;5053302;28;20090;-69
2022/12/25 01:18:20;;;;;;;35.75;14.38;;;9.40;99.90;;;;;;5052392;28;20033;-69
2022/12/25 01:20:46;;;;;;;54.97;15.27;;;9.40;99.90;;;;;;5053329;28;20025;-68
2022/12/25 01:23:12;;;;;;;52.70;16.98;;;9.40;99.90;;;;;;5053135;28;20029;-68
2022/12/25 01:25:37;;;;;;;42.80;16.55;;;9.50;99.90;;;;;;5053043;28;20390;-68
2022/12/25 01:28:03;;;;;;;48.10;15.65;;;9.50;99.90;;;;;;5053353;28;20051;-68
2022/12/25 01:30:30;;;;;;;44.35;16.33;;;9.50;99.90;;;;;;5053272;28;20029;-68
2022/12/25 01:32:56;;;;;;;51.35;16.75;;;9.50;99.90;;;;;;5052959;28;20064;-68
2022/12/25 01:35:21;;;;;;;40.42;14.70;;;9.50;99.90;;;;;;5052918;28;20421;-68
2022/12/25 01:37:47;;;;;;;42.90;14.52;;;9.50;99.90;;;;;;5052864;28;20044;-69
2022/12/25 01:40:12;;;;;;;40.50;14.80;;;9.50;99.90;;;;;;5052960;28;20028;-68
2022/12/25 01:42:38;;;;;;;47.40;17.58;;;9.40;99.90;;;;;;5052599;28;20032;-68
2022/12/25 01:45:37;;;;;;;44.20;16.15;;;9.40;99.90;;;;;;5053108;28;20465;-69
2022/12/25 01:48:08;;;;;;;44.30;17.00;;;9.40;99.90;;;;;;5052884;28;20127;-68
2022/12/25 01:50:37;;;;;;;41.42;16.13;;;9.40;99.90;;;;;;5052634;28;20032;-68
2022/12/25 01:53:04;;;;;;;45.03;17.63;;;9.50;99.90;;;;;;5052774;28;20036;-67
2022/12/25 01:55:33;;;;;;;44.60;18.80;;;9.40;99.90;;;;;;5052261;28;20028;-67
2022/12/25 01:57:58;;;;;;;45.13;17.50;;;9.40;99.90;;;;;;5052332;28;20518;-68
2022/12/25 02:00:24;;;;;;;41.53;17.38;;;9.40;99.90;;;;;;5052787;28;20060;-67
2022/12/25 02:02:49;;;;;;;42.83;17.25;;;9.40;99.90;;;;;;5052571;28;20410;-67
2022/12/25 02:05:28;;;;;;;51.08;18.83;;;9.40;99.90;;;;;;5052404;28;20025;-68
2022/12/25 02:07:55;;;;;;;47.72;18.40;;;9.40;99.90;;;;;;5052524;28;20037;-68
2022/12/25 02:10:21;;;;;;;42.58;18.98;;;9.40;99.90;;;;;;5052175;28;20021;-68
2022/12/25 02:12:47;;;;;;;46.50;18.30;;;9.30;99.90;;;;;;5052097;28;20078;-69
2022/12/25 02:15:18;;;;;;;50.63;17.30;;;9.30;99.90;;;;;;5052451;28;20040;-68
2022/12/25 02:18:06;;;;;;;44.67;16.20;;;9.30;99.90;;;;;;5052468;28;20041;-68
2022/12/25 02:21:09;;;;;;;42.17;16.33;;;9.30;99.90;;;;;;5038448;28;20470;-67
2022/12/25 02:23:56;;;;;;;49.78;19.63;;;9.30;99.90;;;;;;5052192;28;20108;-67
2022/12/25 02:26:46;;;;;;;48.05;18.17;;;9.20;99.90;;;;;;5036603;28;20143;-67
2022/12/25 02:29:58;;;;;;;48.08;19.58;;;9.20;99.90;;;;;;5051770;28;20100;-69
2022/12/25 02:32:32;;;;;;;47.85;19.42;;;9.20;99.90;;;;;;5014271;28;20061;-67
2022/12/25 02:35:06;;;;;;;56.25;20.23;;;9.20;99.90;;;;;;5048688;28;20037;-67
2022/12/25 02:37:54;;;;;;;45.45;18.50;;;9.20;99.90;;;;;;5052053;28;20037;-67
2022/12/25 02:40:23;;;;;;;45.35;17.90;;;9.20;99.90;;;;;;5036431;28;20390;-67
2022/12/25 03:08:09;;;;;;;52.92;18.77;;;9.70;99.90;;;;;;5051515;28;20040;-67
2022/12/25 03:13:30;;;;;;;52.83;17.60;;;9.70;99.90;;;;;;5051742;28;20035;-69
2022/12/25 03:18:41;;;;;;;47.25;18.95;;;9.70;99.90;;;;;;5051839;28;20134;-67
2022/12/25 03:26:53;;;;;;;50.20;17.95;;;9.80;99.90;;;;;;5051981;28;20078;-67
2022/12/25 03:32:18;;;;;;;50.63;17.30;;;9.80;99.90;;;;;;5051261;28;20043;-68
2022/12/25 04:37:18;;;;;;;52.47;21.00;;;10.20;99.90;;;;;;5053916;28;20040;-67
2022/12/25 04:39:43;;;;;;;51.70;19.73;;;10.20;99.90;;;;;;5054390;28;20033;-67
2022/12/25 04:42:09;;;;;;;47.92;18.33;;;10.20;99.90;;;;;;5053736;28;20031;-67
2022/12/25 04:44:34;;;;;;;54.10;22.35;;;10.20;99.90;;;;;;5054372;28;20021;-67
2022/12/25 04:47:00;;;;;;;57.13;21.10;;;10.20;99.90;;;;;;5053825;28;20084;-67
2022/12/25 04:49:25;;;;;;;55.28;22.05;;;10.20;99.90;;;;;;5054110;28;20059;-67
2022/12/25 04:51:51;;;;;;;47.20;18.55;;;10.20;99.90;;;;;;5053800;28;20067;-67
2022/12/25 04:54:17;;;;;;;58.53;22.40;;;10.20;99.90;;;;;;5054063;28;20056;-67
2022/12/25 04:56:42;;;;;;;54.20;20.85;;;10.20;99.90;;;;;;5054156;28;20018;-67
2022/12/25 04:59:08;;;;;;;56.33;21.65;;;10.20;99.90;;;;;;5054177;28;20025;-67
2022/12/25 05:01:33;;;;;;;51.00;23.13;;;10.30;99.90;;;;;;5053710;28;20032;-67
2022/12/25 05:03:59;;;;;;;49.58;20.67;;;10.30;99.90;;;;;;5053785;28;20064;-67
2022/12/25 05:06:25;;;;;;;49.10;22.58;;;10.30;99.90;;;;;;5053986;28;20452;-67
2022/12/25 05:08:50;;;;;;;58.47;21.70;;;10.30;99.90;;;;;;5053904;28;20738;-67
2022/12/25 05:11:16;;;;;;;54.33;17.65;;;10.30;99.90;;;;;;5053594;28;20036;-67
2022/12/25 05:13:42;;;;;;;48.63;21.50;;;10.30;99.90;;;;;;5053945;28;20029;-67
2022/12/25 05:16:12;;;;;;;50.30;21.08;;;10.30;99.90;;;;;;5053863;28;20029;-67
2022/12/25 05:18:37;;;;;;;41.72;16.50;;;10.40;99.90;;;;;;5053651;28;20059;-67
2022/12/25 05:21:03;;;;;;;51.40;21.83;;;10.40;99.90;;;;;;5053847;28;20443;-67
2022/12/25 05:23:29;;;;;;;53.50;21.95;;;10.40;99.90;;;;;;5053651;28;20033;-67
2022/12/25 05:25:55;;;;;;;51.97;22.17;;;10.40;99.90;;;;;;5053770;28;20033;-67
2022/12/25 05:28:21;;;;;;;50.80;19.75;;;10.40;99.90;;;;;;5053391;28;20028;-67
2022/12/25 05:30:47;;;;;;;56.55;22.88;;;10.40;99.90;;;;;;5053461;28;20029;-67
2022/12/25 05:33:13;;;;;;;50.97;19.45;;;10.40;99.90;;;;;;5053437;28;20087;-67
2022/12/25 05:35:39;;;;;;;47.58;20.58;;;10.40;99.90;;;;;;5053463;28;20116;-66
2022/12/25 05:38:05;;;;;;;42.67;16.45;;;10.40;99.90;;;;;;5052866;28;20098;-67
2022/12/25 05:40:32;;;;;;;57.38;20.45;;;10.40;99.90;;;;;;5053156;28;20021;-67
2022/12/25 05:42:58;;;;;;;38.97;16.80;;;10.40;99.90;;;;;;5052845;28;20021;-66
2022/12/25 05:45:23;;;;;;;51.25;21.63;;;10.40;99.90;;;;;;5053149;28;20029;-67
2022/12/25 05:47:49;;;;;;;50.63;21.30;;;10.40;99.90;;;;;;5052556;28;20513;-67
2022/12/25 05:50:15;;;;;;;43.20;16.45;;;10.40;99.90;;;;;;5053227;28;20074;-67
2022/12/25 05:52:40;;;;;;;41.63;19.52;;;10.40;99.90;;;;;;5052898;28;20021;-67
2022/12/25 05:55:06;;;;;;;48.60;21.73;;;10.40;99.90;;;;;;5053119;28;20033;-68
2022/12/25 05:57:32;;;;;;;53.17;19.40;;;10.40;99.90;;;;;;5052574;28;20482;-66
2022/12/25 05:59:58;;;;;;;42.65;18.77;;;10.40;99.90;;;;;;5052524;28;20033;-67
2022/12/25 06:02:24;;;;;;;43.17;18.23;;;10.40;99.90;;;;;;5052407;28;20066;-67
2022/12/25 06:04:50;;;;;;;46.45;21.30;;;10.40;99.90;;;;;;5052659;28;20021;-67
2022/12/25 06:07:15;;;;;;;46.85;20.35;;;10.40;99.90;;;;;;5052610;28;20489;-67
2022/12/25 06:09:41;;;;;;;40.13;17.33;;;10.40;99.90;;;;;;5048740;28;20025;-67
2022/12/25 06:12:08;;;;;;;43.38;18.38;;;10.50;99.90;;;;;;5051905;28;20045;-67
2022/12/25 06:14:34;;;;;;;46.65;21.10;;;10.50;99.90;;;;;;5052881;28;20025;-67
2022/12/25 06:16:59;;;;;;;43.40;19.25;;;10.50;99.90;;;;;;5052740;28;20043;-67
2022/12/25 06:19:25;;;;;;;45.35;18.20;;;10.50;99.90;;;;;;5052680;28;20033;-67
2022/12/25 06:21:54;;;;;;;42.97;18.27;;;10.50;99.90;;;;;;5052387;28;20501;-67
2022/12/25 06:24:21;;;;;;;46.13;18.73;;;10.50;99.90;;;;;;5052361;28;20025;-67
2022/12/25 06:26:47;;;;;;;46.45;18.75;;;10.50;99.90;;;;;;5052598;28;20025;-67
2022/12/25 06:29:13;;;;;;;40.35;18.33;;;10.50;99.90;;;;;;5052661;28;20035;-67
2022/12/25 06:31:38;;;;;;;43.92;20.35;;;10.40;99.90;;;;;;5052012;28;20051;-67
2022/12/25 06:34:04;;;;;;;47.75;19.13;;;10.40;99.90;;;;;;5052546;28;20365;-67
2022/12/25 06:36:29;;;;;;;44.60;19.45;;;10.50;99.90;;;;;;5052659;28;20053;-68
2022/12/25 06:38:55;;;;;;;42.78;18.48;;;10.50;99.90;;;;;;5052514;28;20029;-68
2022/12/25 06:41:26;;;;;;;38.15;18.77;;;10.40;99.90;;;;;;5050157;28;20043;-67
2022/12/25 06:43:54;;;;;;;44.67;19.02;;;10.30;99.90;;;;;;5052057;28;20458;-67
2022/12/25 06:46:21;;;;;;;42.22;17.52;;;10.30;99.90;;;;;;5052441;28;20021;-67
2022/12/25 06:48:48;;;;;;;43.67;19.15;;;10.30;99.90;;;;;;5052504;28;20131;-67
2022/12/25 06:51:19;;;;;;;36.80;16.67;;;10.20;99.90;;;;;;5051552;28;20021;-67
2022/12/25 06:53:46;;;;;;;42.70;16.35;;;10.30;99.90;;;;;;5052184;28;20036;-67
2022/12/25 06:56:14;;;;;;;37.72;15.80;;;10.20;99.90;;;;;;5047913;28;20029;-68
2022/12/25 06:58:44;;;;;;;38.85;14.50;;;10.20;99.90;;;;;;5051418;28;20041;-67
2022/12/25 07:01:20;;;;;;;38.85;15.00;;;10.20;99.90;;;;;;5051986;28;20082;-67
2022/12/25 07:03:47;;;;;;;39.75;18.40;;;10.10;99.90;;;;;;5051803;28;20021;-68
2022/12/25 07:06:14;;;;;;;37.03;15.93;;;10.10;99.90;;;;;;5035890;28;20378;-68
2022/12/25 07:08:39;;;;;;;38.45;16.67;;;10.00;99.90;;;;;;5051980;28;20087;-67
2022/12/25 07:11:05;;;;;;;39.53;16.27;;;10.10;99.90;;;;;;5051872;28;20565;-67
2022/12/25 07:13:31;;;;;;;39.33;16.70;;;10.10;99.90;;;;;;5052419;28;20370;-67
2022/12/25 07:15:58;;;;;;;37.22;15.65;;;10.10;99.90;;;;;;5055882;28;20036;-67
2022/12/25 07:18:24;;;;;;;33.80;13.25;;;10.10;99.90;;;;;;5056091;28;20309;-67
2022/12/25 07:20:50;;;;;;;41.67;16.63;;;10.10;99.90;;;;;;5056144;28;20537;-67
2022/12/25 07:23:15;;;;;;;38.00;15.07;;;10.10;99.90;;;;;;5055968;28;20056;-67
2022/12/25 07:25:41;;;;;;;35.88;15.50;;;10.10;99.90;;;;;;5055684;28;20048;-67
2022/12/25 07:28:06;;;;;;;36.70;16.35;;;10.10;99.90;;;;;;5053908;28;20031;-67
2022/12/25 07:30:32;;;;;;;39.35;19.20;;;10.10;99.90;;;;;;5055248;28;20113;-67
2022/12/25 07:32:58;;;;;;;38.50;16.40;;;10.10;99.90;;;;;;5055800;28;20021;-67
2022/12/25 07:35:23;;;;;;;44.67;18.90;;;10.10;99.90;;;;;;5055510;28;20373;-68
2022/12/25 07:37:49;;;;;;;36.63;17.65;;;10.20;99.90;;;;;;5055330;28;20055;-67
2022/12/25 07:40:14;;;;;;;40.47;16.05;;;10.20;99.90;;;;;;5055723;28;20104;-67
2022/12/25 07:42:40;;;;;;;36.72;17.23;;;10.20;99.90;;;;;;5055682;28;20052;-68
2022/12/25 07:45:06;;;;;;;37.17;15.35;;;10.20;99.90;;;;;;5055062;28;20047;-67
2022/12/25 07:47:31;;;;;;;41.03;18.30;;;10.20;99.90;;;;;;5055265;28;20124;-68
2022/12/25 07:49:57;;;;;;;44.95;18.63;;;10.20;99.90;;;;;;5054616;28;20036;-69
2022/12/25 07:52:23;;;;;;;51.03;17.00;;;10.30;99.90;;;;;;5055413;28;20017;-68
2022/12/25 07:54:49;;;;;;;36.10;14.18;;;10.20;99.90;;;;;;5054093;28;20078;-68
2022/12/25 07:57:14;;;;;;;38.17;16.52;;;10.30;99.90;;;;;;5055318;28;20036;-68
2022/12/25 07:59:40;;;;;;;43.42;18.08;;;10.30;99.90;;;;;;5055376;28;20100;-68
2022/12/25 08:02:05;;;;;;;35.90;15.65;;;10.30;99.90;;;;;;5054810;28;20025;-68
2022/12/25 08:04:31;;;;;;;41.60;17.67;;;10.30;99.90;;;;;;5054375;28;20056;-67
2022/12/25 08:06:57;;;;;;;38.85;15.27;;;10.20;99.90;;;;;;5053944;28;20060;-68
2022/12/25 08:09:22;;;;;;;40.85;16.10;;;10.30;99.90;;;;;;5055385;28;20037;-68
2022/12/25 08:11:48;;;;;;;38.53;16.20;;;10.20;99.90;;;;;;5055085;28;20029;-68
2022/12/25 08:14:14;;;;;;;37.67;14.95;;;10.20;99.90;;;;;;5054877;28;20052;-68
2022/12/25 08:16:41;;;;;;;42.00;18.30;;;10.20;99.90;;;;;;5055187;28;20029;-68
2022/12/25 08:19:07;;;;;;;35.50;13.15;;;10.20;99.90;;;;;;5054806;28;20036;-68
2022/12/25 08:21:33;;;;;;;41.92;15.75;;;10.30;99.90;;;;;;5054785;28;20021;-68
2022/12/25 08:23:58;;;;;;;34.15;14.38;;;10.30;99.90;;;;;;5054837;28;20036;-68
2022/12/25 08:26:24;;;;;;;35.78;14.25;;;10.30;99.90;;;;;;5054365;28;20082;-68
2022/12/25 08:28:50;;;;;;;39.50;14.93;;;10.30;99.90;;;;;;5054851;28;20021;-68
2022/12/25 08:31:25;;;;;;;41.03;15.70;;;10.30;99.90;;;;;;5054551;28;20017;-68
2022/12/25 08:33:53;;;;;;;40.85;14.75;;;10.30;99.90;;;;;;5054229;28;20472;-67
2022/12/25 08:36:19;;;;;;;36.65;13.88;;;10.30;99.90;;;;;;5054570;28;20103;-68
2022/12/25 08:38:45;;;;;;;40.95;15.60;;;10.40;99.90;;;;;;5054302;28;20044;-67
2022/12/25 08:41:12;;;;;;;47.28;16.55;;;10.40;99.90;;;;;;5054036;28;20032;-67
2022/12/25 08:43:38;;;;;;;38.22;14.95;;;10.40;99.90;;;;;;5054459;28;20025;-68
2022/12/25 08:46:04;;;;;;;37.00;13.57;;;10.40;99.90;;;;;;5054577;28;20108;-68
2022/12/25 08:48:30;;;;;;;37.30;13.15;;;10.50;99.90;;;;;;5054309;28;20106;-68
2022/12/25 08:50:56;;;;;;;31.73;13.13;;;10.50;99.90;;;;;;5054365;28;20094;-68
2022/12/25 08:53:23;;;;;;;41.20;15.15;;;10.50;99.90;;;;;;5054305;28;20028;-67
2022/12/25 08:55:55;;;;;;;38.38;15.45;;;10.50;99.90;;;;;;5053551;28;20033;-68
2022/12/25 08:58:37;;;;;;;30.45;12.80;;;10.50;99.90;;;;;;5054247;28;20037;-68
2022/12/25 09:01:03;;;;;;;29.20;11.52;;;10.50;99.90;;;;;;5033378;28;20069;-68
2022/12/25 09:03:32;;;;;;;33.00;12.63;;;10.60;99.90;;;;;;5033528;28;20363;-67
2022/12/25 09:06:08;;;;;;;31.80;11.10;;;10.60;99.90;;;;;;5034062;28;20030;-68
2022/12/25 09:08:35;;;;;;;30.23;13.27;;;10.60;99.90;;;;;;5065877;28;20386;-70
2022/12/25 09:11:05;;;;;;;32.20;12.52;;;10.60;99.90;;;;;;5033774;28;20033;-69
2022/12/25 09:13:30;;;;;;;23.90;9.52;;;10.60;99.90;;;;;;5033527;28;20049;-68
2022/12/25 09:15:56;;;;;;;21.73;8.93;;;10.60;99.90;;;;;;5033770;28;20060;-67
2022/12/25 09:18:22;;;;;;;32.42;10.60;;;10.60;99.90;;;;;;5031304;28;20087;-69
2022/12/25 09:21:00;;;;;;;28.85;11.05;;;10.60;99.90;;;;;;5033003;28;20068;-68
2022/12/25 09:23:26;;;;;;;24.38;9.02;;;10.60;99.90;;;;;;5032150;28;20683;-70
2022/12/25 09:25:52;;;;;;;26.17;10.45;;;10.60;99.90;;;;;;5031590;28;20026;-68
2022/12/25 09:28:17;;;;;;;24.83;10.85;;;10.60;99.90;;;;;;5032740;28;20344;-70
2022/12/25 09:30:43;;;;;;;28.08;10.60;;;10.70;99.90;;;;;;5032481;28;20490;-69
2022/12/25 09:33:08;;;;;;;20.42;7.80;;;10.70;99.90;;;;;;5033530;28;20055;-69
2022/12/25 09:35:34;;;;;;;20.05;7.47;;;10.70;99.90;;;;;;5033200;28;20073;-69
2022/12/25 09:37:59;;;;;;;21.20;7.82;;;10.70;99.90;;;;;;5031959;28;20048;-69
2022/12/25 09:40:28;;;;;;;25.77;9.40;;;10.70;99.90;;;;;;5033399;28;20026;-70
2022/12/25 09:42:55;;;;;;;24.20;8.73;;;10.70;99.90;;;;;;5032142;28;20486;-70
2022/12/25 09:45:28;;;;;;;22.33;8.38;;;10.70;99.90;;;;;;5033339;28;20108;-67
2022/12/25 09:47:57;;;;;;;13.68;6.15;;;10.70;99.90;;;;;;5033239;28;20044;-69
2022/12/25 09:50:39;;;;;;;18.17;7.10;;;10.70;99.90;;;;;;5033062;28;20029;-70
2022/12/25 09:53:25;;;;;;;24.77;8.25;;;10.70;99.90;;;;;;5032348;28;20102;-70
2022/12/25 09:56:12;;;;;;;14.30;6.90;;;10.70;99.90;;;;;;5032504;28;20394;-70
2022/12/25 09:58:38;;;;;;;16.42;6.20;;;10.80;99.90;;;;;;5032748;28;20036;-70
2022/12/25 10:01:17;;;;;;;16.10;6.72;;;10.80;99.90;;;;;;5033004;28;20021;-70
2022/12/25 10:04:10;;;;;;;14.90;5.95;;;10.90;99.90;;;;;;5032854;28;20021;-67
2022/12/25 10:07:07;;;;;;;18.38;7.45;;;10.90;99.90;;;;;;5019851;28;20034;-70
2022/12/25 10:09:56;;;;;;;15.65;6.43;;;10.90;99.90;;;;;;5032685;28;20028;-69
2022/12/25 10:12:50;;;;;;;17.85;7.53;;;11.00;99.90;;;;;;5049806;28;20035;-68
2022/12/25 10:15:41;;;;;;;18.52;7.35;;;11.00;99.90;;;;;;5031559;28;20052;-69
2022/12/25 10:18:28;;;;;;;19.15;7.80;;;11.00;99.90;;;;;;5006417;28;20046;-69
2022/12/25 10:20:56;;;;;;;22.58;8.88;;;11.00;99.90;;;;;;5032431;28;20032;-67
2022/12/25 10:23:27;;;;;;;21.60;8.98;;;11.00;99.90;;;;;;5032527;28;20029;-68
2022/12/25 10:25:53;;;;;;;24.55;11.00;;;11.00;99.90;;;;;;5032605;28;20057;-68
2022/12/25 10:28:32;;;;;;;25.55;11.90;;;11.00;99.90;;;;;;5032448;28;20097;-67
2022/12/25 10:31:13;;;;;;;26.73;11.65;;;11.00;99.90;;;;;;5032392;28;20528;-69
2022/12/25 10:33:38;;;;;;;26.65;12.57;;;11.00;99.90;;;;;;5032008;28;20104;-69
2022/12/25 10:36:05;;;;;;;29.30;13.05;;;10.90;99.90;;;;;;5032389;28;20119;-70
2022/12/25 10:38:31;;;;;;;29.77;12.43;;;10.90;99.90;;;;;;5032469;28;20554;-68
2022/12/25 10:41:33;;;;;;;26.25;12.40;;;10.90;99.90;;;;;;5031948;28;20114;-67
2022/12/25 10:43:58;;;;;;;26.73;11.75;;;10.80;99.90;;;;;;5030395;28;20025;-68
2022/12/25 10:46:27;;;;;;;24.38;10.50;;;10.70;99.90;;;;;;5029073;28;20025;-70
2022/12/25 10:48:56;;;;;;;27.15;11.93;;;10.70;99.90;;;;;;5032126;28;20079;-67
2022/12/25 10:51:39;;;;;;;27.73;11.73;;;10.70;99.90;;;;;;5032015;28;20104;-69
2022/12/25 10:54:25;;;;;;;26.10;12.40;;;10.70;99.90;;;;;;5031621;28;20044;-69
2022/12/25 10:57:02;;;;;;;29.00;13.07;;;10.70;99.90;;;;;;5032059;28;20398;-69
2022/12/25 10:59:33;;;;;;;25.08;11.68;;;10.70;99.90;;;;;;5032023;28;20048;-70
2022/12/25 11:02:17;;;;;;;25.67;11.98;;;10.60;99.90;;;;;;5032123;28;20021;-69
2022/12/25 11:04:43;;;;;;;26.98;10.48;;;10.60;99.90;;;;;;5032462;28;20026;-69
2022/12/25 11:07:18;;;;;;;25.20;10.30;;;10.60;99.90;;;;;;5032030;28;20026;-68
2022/12/25 11:09:55;;;;;;;20.95;8.95;;;10.60;99.90;;;;;;5031448;28;20032;-69
2022/12/25 11:12:30;;;;;;;25.98;11.10;;;10.60;99.90;;;;;;5015815;28;20069;-68
2022/12/25 11:14:59;;;;;;;26.25;10.52;;;10.60;99.90;;;;;;5032308;28;20021;-68
2022/12/25 11:17:26;;;;;;;25.30;11.07;;;10.60;99.90;;;;;;5031820;28;20041;-69
2022/12/25 11:19:57;;;;;;;27.40;11.15;;;10.70;99.90;;;;;;5031864;28;20032;-69
2022/12/25 11:22:24;;;;;;;26.37;11.57;;;10.70;99.90;;;;;;5031676;28;20032;-67
2022/12/25 11:24:49;;;;;;;24.77;10.57;;;10.70;99.90;;;;;;5032270;28;20021;-69
2022/12/25 11:27:33;;;;;;;26.05;12.02;;;10.80;99.90;;;;;;5030647;28;20045;-67
2022/12/25 11:30:02;;;;;;;23.38;11.00;;;10.80;99.90;;;;;;5030090;28;20041;-68
2022/12/25 11:32:42;;;;;;;26.60;11.88;;;10.90;99.90;;;;;;5032102;28;20112;-69
2022/12/25 11:35:13;;;;;;;25.48;10.77;;;11.00;99.90;;;;;;5031326;28;20538;-70
2022/12/25 11:37:49;;;;;;;24.25;11.25;;;11.00;99.90;;;;;;5031701;28;20041;-68
2022/12/25 11:40:22;;;;;;;24.90;10.18;;;11.00;99.90;;;;;;5015967;28;20281;-70
2022/12/25 11:42:51;;;;;;;26.60;11.35;;;11.00;99.90;;;;;;5031694;28;20025;-69
2022/12/25 11:45:23;;;;;;;22.83;10.18;;;11.00;99.90;;;;;;5031529;28;20030;-69
2022/12/25 11:48:10;;;;;;;21.70;9.48;;;11.00;99.90;;;;;;5031636;28;20526;-70
2022/12/25 11:50:47;;;;;;;20.98;8.98;;;11.00;99.90;;;;;;5031724;28;20033;-70
2022/12/25 11:53:21;;;;;;;24.40;10.40;;;10.90;99.90;;;;;;5031541;28;20490;-69
2022/12/25 11:55:56;;;;;;;23.70;11.07;;;10.90;99.90;;;;;;5031723;28;20083;-69
2022/12/25 11:58:27;;;;;;;24.02;10.07;;;10.90;99.90;;;;;;5016667;28;20029;-70
2022/12/25 12:00:56;;;;;;;27.30;11.67;;;10.90;99.90;;;;;;5032187;28;20080;-69
2022/12/25 12:03:32;;;;;;;22.23;10.25;;;10.90;99.90;;;;;;5035373;28;20025;-69
2022/12/25 12:06:06;;;;;;;24.23;10.50;;;10.80;99.90;;;;;;5035235;28;20037;-69
2022/12/25 12:08:34;;;;;;;24.77;11.27;;;10.80;99.90;;;;;;5035041;28;20028;-67
2022/12/25 12:11:22;;;;;;;27.35;12.35;;;10.80;99.90;;;;;;5035124;28;20072;-68
2022/12/25 12:14:38;;;;;;;28.30;13.30;;;10.80;99.90;;;;;;5067209;28;20025;-68
2022/12/25 12:17:08;;;;;;;29.45;13.13;;;10.80;99.90;;;;;;5034043;28;20025;-69
2022/12/25 12:19:34;;;;;;;25.95;11.48;;;10.80;99.90;;;;;;5032765;28;20028;-69
2022/12/25 12:22:02;;;;;;;27.95;12.65;;;10.90;99.90;;;;;;5034359;28;20060;-70
2022/12/25 12:24:39;;;;;;;26.27;12.10;;;10.90;99.90;;;;;;5034850;28;20083;-69
2022/12/25 12:27:19;;;;;;;29.23;12.82;;;10.90;99.90;;;;;;5034397;28;20025;-68
2022/12/25 12:29:55;;;;;;;27.58;12.80;;;10.90;99.90;;;;;;5034880;28;20033;-68
2022/12/25 12:32:34;;;;;;;28.20;12.93;;;10.80;99.90;;;;;;5034714;28;20022;-69
2022/12/25 12:35:10;;;;;;;29.10;14.23;;;10.80;99.90;;;;;;5034966;28;20028;-68
2022/12/25 12:37:39;;;;;;;27.23;13.77;;;10.80;99.90;;;;;;5034300;28;20049;-68
2022/12/25 12:40:20;;;;;;;30.55;13.50;;;10.80;99.90;;;;;;5034668;28;20040;-68
2022/12/25 12:42:49;;;;;;;31.75;13.25;;;10.80;99.90;;;;;;5034311;28;20088;-68
2022/12/25 12:45:43;;;;;;;27.10;11.27;;;10.80;99.90;;;;;;5034474;28;20084;-68
2022/12/25 12:48:21;;;;;;;28.58;13.02;;;10.70;99.90;;;;;;5033153;28;20045;-67
2022/12/25 12:50:47;;;;;;;26.48;11.70;;;10.70;99.90;;;;;;5034230;28;20025;-69
2022/12/25 12:53:21;;;;;;;26.85;12.32;;;10.60;99.90;;;;;;5033698;28;20060;-68
2022/12/25 12:55:47;;;;;;;26.88;10.48;;;10.60;99.90;;;;;;5033991;28;20029;-69
2022/12/25 12:58:34;;;;;;;28.10;11.52;;;10.60;99.90;;;;;;5017784;28;20041;-70
2022/12/25 13:01:25;;;;;;;26.15;11.07;;;10.50;99.90;;;;;;5034018;28;20378;-70
2022/12/25 13:03:58;;;;;;;28.58;13.43;;;10.40;99.90;;;;;;5034256;28;20018;-69
2022/12/25 13:06:32;;;;;;;23.92;9.98;;;10.40;99.90;;;;;;5034142;28;20021;-70
2022/12/25 13:09:13;;;;;;;24.90;11.32;;;10.40;99.90;;;;;;5033401;28;20095;-70
2022/12/25 13:11:41;;;;;;;31.85;13.35;;;10.40;99.90;;;;;;5033753;28;20043;-68
2022/12/25 13:14:23;;;;;;;27.90;12.05;;;10.30;99.90;;;;;;5032065;28;20040;-69
2022/12/25 13:16:53;;;;;;;30.65;12.98;;;10.30;99.90;;;;;;5066205;28;20102;-68
2022/12/25 13:19:22;;;;;;;29.08;14.40;;;10.30;99.90;;;;;;5033410;28;20106;-70
2022/12/25 13:21:56;;;;;;;28.95;12.35;;;10.30;99.90;;;;;;5033463;28;20116;-70
2022/12/25 13:24:49;;;;;;;26.25;11.13;;;10.30;99.90;;;;;;5033604;28;20104;-68
2022/12/25 13:27:24;;;;;;;27.23;12.65;;;10.30;99.90;;;;;;5032283;28;20040;-70
2022/12/25 13:29:50;;;;;;;29.98;12.70;;;10.30;99.90;;;;;;5033548;28;20379;-69
2022/12/25 13:32:29;;;;;;;31.95;13.88;;;10.30;99.90;;;;;;5033732;28;20029;-69
2022/12/25 13:34:54;;;;;;;29.42;13.43;;;10.20;99.90;;;;;;5033177;28;20435;-70
2022/12/25 13:37:29;;;;;;;29.65;13.60;;;10.20;99.90;;;;;;5033696;28;20030;-69
2022/12/25 13:39:56;;;;;;;31.02;14.25;;;10.20;99.90;;;;;;5033692;28;20029;-70
2022/12/25 13:42:25;;;;;;;30.60;14.70;;;10.20;99.90;;;;;;5032099;28;20029;-70
2022/12/25 13:45:04;;;;;;;32.53;14.45;;;10.20;99.90;;;;;;5033259;28;20057;-70
2022/12/25 13:47:39;;;;;;;30.02;13.52;;;10.20;99.90;;;;;;5033050;28;20148;-70
2022/12/25 13:50:24;;;;;;;32.15;15.75;;;10.20;99.90;;;;;;5032567;28;20037;-70
2022/12/25 13:52:51;;;;;;;31.73;15.73;;;10.20;99.90;;;;;;5032858;28;20030;-70
2022/12/25 13:55:22;;;;;;;33.97;15.75;;;10.20;99.90;;;;;;5032971;28;20033;-68
2022/12/25 13:57:59;;;;;;;39.67;18.40;;;10.20;99.90;;;;;;5033059;28;20033;-69
2022/12/25 14:00:39;;;;;;;34.60;16.15;;;10.20;99.90;;;;;;5031666;28;20304;-71
2022/12/25 14:03:08;;;;;;;30.55;13.95;;;10.20;99.90;;;;;;5032603;28;20095;-70
2022/12/25 14:05:36;;;;;;;30.02;13.25;;;10.20;99.90;;;;;;5033113;28;20100;-70
2022/12/25 14:08:18;;;;;;;34.28;16.10;;;10.20;99.90;;;;;;5030506;28;20401;-70
2022/12/25 14:10:47;;;;;;;38.53;16.08;;;10.20;99.90;;;;;;5032810;28;20117;-69
2022/12/25 14:13:13;;;;;;;37.88;16.60;;;10.20;99.90;;;;;;5024693;28;20459;-70
2022/12/25 14:15:40;;;;;;;40.08;17.90;;;10.20;99.90;;;;;;5031895;28;20026;-70
2022/12/25 14:18:13;;;;;;;33.28;17.10;;;10.30;99.90;;;;;;5032779;28;20132;-70
2022/12/25 14:20:41;;;;;;;28.42;12.02;;;10.30;99.90;;;;;;5032485;28;20025;-69
2022/12/25 14:23:14;;;;;;;34.78;15.80;;;10.30;99.90;;;;;;5032967;28;20040;-69
2022/12/25 14:25:42;;;;;;;35.53;15.35;;;10.30;99.90;;;;;;5032243;28;20529;-69
2022/12/25 14:28:20;;;;;;;34.10;16.00;;;10.30;99.90;;;;;;5032366;28;20040;-71
2022/12/25 14:30:46;;;;;;;34.00;15.32;;;10.30;99.90;;;;;;5032569;28;20479;-71